Branca De Sagres — CUOV5 — position and weather

sailwx.info

Track history (hours):
 
Tides and Currents Weather Stations Pressure Air Temp Water Temp Dewpoint Dewpoint Depression Visibility Wind Speed Wind Dir Waves Ship Positions

Branca De Sagres

Last reported at 2018-May-24 15:42 UTC. Time now 2018-May-25 06:36 UTC.
Position N 38°26' W 009°07'.

Length 18 m.

MMSI: 204209000.

Date/timePositionNaut miles runAvg speedWind from/ knotsBaromVisibWave heightAir tempDewpointWater temp
2018-May-24 15:42N 38°26' W 009°07'0 0.0
2018-May-24 15:30N 38°26' W 009°07'0 0.0
2018-May-24 14:58N 38°26' W 009°07'0 0.0
2018-May-24 14:30N 38°26' W 009°07'0 0.0
2018-May-24 13:59N 38°26' W 009°07'0 0.0
2018-May-24 08:08N 38°26' W 009°07'0 0.0
2018-May-24 07:12N 38°26' W 009°07'0 0.0
2018-May-24 06:57N 38°26' W 009°07'0 0.0
2018-May-24 06:30N 38°26' W 009°07'0 0.0
2018-May-24 03:19N 38°26' W 009°07'0 0.0
2018-May-24 02:59N 38°26' W 009°07'0 0.2
2018-May-24 02:30N 38°26' W 009°07'0 0.0
2018-May-24 02:00N 38°26' W 009°07'3 5.0
2018-May-24 01:30N 38°24' W 009°09'4 7.5
2018-May-24 01:00N 38°21' W 009°12'4 7.7
2018-May-24 00:30N 38°18' W 009°15'4 8.0
2018-May-24 00:00N 38°15' W 009°18'4 7.7
2018-May-23 23:30N 38°13' W 009°21'5 7.6
2018-May-23 22:49N 38°09' W 009°26'2 7.3
2018-May-23 22:30N 38°07' W 009°28'1 1.8
2018-May-23 21:59N 38°07' W 009°29'0 0.5
2018-May-23 21:12N 38°07' W 009°29'0 0.9
2018-May-23 20:55N 38°07' W 009°28'0 1.0
2018-May-23 20:29N 38°07' W 009°28'0 1.0
2018-May-23 19:59N 38°08' W 009°28'1 1.0
2018-May-23 19:27N 38°08' W 009°27'1 1.1
2018-May-23 18:56N 38°09' W 009°27'2 1.1
2018-May-23 17:11N 38°10' W 009°26'0 1.0
2018-May-23 16:59N 38°10' W 009°26'1 0.9
2018-May-23 16:18N 38°11' W 009°25'1 1.0
2018-May-23 15:46N 38°11' W 009°25'0 1.0
2018-May-23 15:22N 38°12' W 009°24'1 0.9
2018-May-23 14:36N 38°12' W 009°24'0 0.9
2018-May-23 14:29N 38°12' W 009°24'0 0.7
2018-May-23 14:00N 38°12' W 009°23'0 0.4
2018-May-23 13:27N 38°12' W 009°23'3 4.7
2018-May-23 12:46N 38°15' W 009°21'3 8.1
2018-May-23 12:26N 38°17' W 009°18'5 7.8
2018-May-23 11:48N 38°21' W 009°14'4 8.4
2018-May-23 11:20N 38°23' W 009°10'3 8.4
2018-May-23 10:59N 38°25' W 009°08'1 2.3
2018-May-23 10:29N 38°26' W 009°07'0 0.3
2018-May-23 09:59N 38°26' W 009°07'0 0.0
2018-May-22 20:13N 38°26' W 009°07'0 0.6
2018-May-22 20:00N 38°26' W 009°07'0 0.0
2018-May-22 11:43N 38°26' W 009°07'0 0.0
2018-May-22 11:31N 38°26' W 009°07'0 0.0
2018-May-22 10:59N 38°26' W 009°07'0 0.0
2018-May-22 10:30N 38°26' W 009°07'0 0.0
2018-May-22 10:00N 38°26' W 009°07'0 0.0
2018-May-22 09:30N 38°26' W 009°07'0 0.0
2018-May-22 09:00N 38°26' W 009°07'0 0.0
2018-May-22 08:30N 38°26' W 009°07'0 0.0
2018-May-22 08:00N 38°26' W 009°07'0 0.0
2018-May-22 07:30N 38°26' W 009°07'0 0.0
2018-May-22 07:00N 38°26' W 009°07'0 0.0
2018-May-22 06:30N 38°26' W 009°07'0 0.2
2018-May-22 06:00N 38°26' W 009°07'4 6.9
2018-May-22 05:23N 38°24' W 009°11'3 8.4
2018-May-22 04:58N 38°21' W 009°14'4 8.4
2018-May-22 04:30N 38°18' W 009°18'4 8.4
2018-May-22 03:59N 38°15' W 009°21'12 4.5
2018-May-22 01:22N 38°06' W 009°30'2 2.4
2018-May-22 00:41N 38°07' W 009°29'1 0.6
2018-May-21 23:34N 38°08' W 009°28'0 0.9
2018-May-21 23:28N 38°08' W 009°28'1 0.9
2018-May-21 22:13N 38°08' W 009°27'0 1.0
2018-May-21 21:51N 38°09' W 009°27'2 1.0
2018-May-21 19:39N 38°10' W 009°25'0 0.9
2018-May-21 19:30N 38°10' W 009°25'0 0.8
2018-May-21 19:00N 38°11' W 009°24'0 0.6
2018-May-21 18:30N 38°11' W 009°24'0 0.6
2018-May-21 18:00N 38°11' W 009°24'0 0.8
2018-May-21 17:30N 38°11' W 009°23'5 1.9
2018-May-21 15:10N 38°15' W 009°20'1 8.6
2018-May-21 15:00N 38°16' W 009°18'4 8.5
2018-May-21 14:30N 38°19' W 009°15'4 8.6
2018-May-21 14:00N 38°22' W 009°11'4 8.7
2018-May-21 13:30N 38°25' W 009°07'1 0.4
2018-May-21 10:53N 38°26' W 009°07'0 0.0
2018-May-21 10:30N 38°26' W 009°07'0 0.0
2018-May-21 09:59N 38°26' W 009°07'0 0.0
2018-May-19 14:07N 38°26' W 009°07'0 0.0
2018-May-19 14:00N 38°26' W 009°07'0 0.0
2018-May-19 13:30N 38°26' W 009°07'0 0.2
2018-May-19 13:00N 38°26' W 009°07'3 6.0
2018-May-19 12:30N 38°24' W 009°09'4 8.4
2018-May-19 12:00N 38°21' W 009°13'4 9.0
2018-May-19 11:30N 38°18' W 009°17'4 8.8
2018-May-19 11:00N 38°15' W 009°21'4 7.0
2018-May-19 10:30N 38°12' W 009°24'2 3.4
2018-May-19 10:00N 38°11' W 009°25'1 2.4
2018-May-19 09:26N 38°10' W 009°26'2 4.5
2018-May-19 08:59N 38°08' W 009°28'3 4.7
2018-May-19 08:25N 38°06' W 009°30'5 1.1
2018-May-19 03:36N 38°11' W 009°26'0 0.9
2018-May-19 03:30N 38°11' W 009°26'1 1.0
2018-May-19 02:59N 38°11' W 009°25'0 0.8
2018-May-19 02:30N 38°11' W 009°25'1 0.8
2018-May-19 00:59N 38°11' W 009°23'1 0.8
2018-May-18 23:52N 38°12' W 009°23'1 0.6
2018-May-18 22:28N 38°13' W 009°22'4 8.4
2018-May-18 21:59N 38°16' W 009°19'5 8.3
2018-May-18 21:26N 38°19' W 009°15'4 8.5
2018-May-18 20:57N 38°22' W 009°12'4 8.8
2018-May-18 20:30N 38°25' W 009°08'2 2.3
2018-May-18 19:47N 38°26' W 009°07'0 0.0
2018-May-18 19:28N 38°26' W 009°07'0 0.0
2018-May-18 11:41N 38°26' W 009°07'0 0.0
2018-May-18 11:30N 38°26' W 009°07'0 0.0
2018-May-18 10:26N 38°26' W 009°07'0 0.0
2018-May-18 04:23N 38°26' W 009°07'0 0.2
2018-May-18 03:59N 38°26' W 009°07'4 7.3
2018-May-18 03:30N 38°24' W 009°10'4 8.4
2018-May-18 03:00N 38°21' W 009°14'4 8.2
2018-May-18 02:30N 38°18' W 009°17'4 8.0
2018-May-18 02:00N 38°15' W 009°21'4 7.9
2018-May-18 01:28N 38°12' W 009°24'4 7.9
2018-May-18 00:55N 38°08' W 009°28'3 7.4
2018-May-18 00:30N 38°06' W 009°31'5 4.3
2018-May-17 23:21N 38°10' W 009°27'2 4.6
2018-May-17 23:01N 38°12' W 009°27'2 3.4
2018-May-17 22:29N 38°12' W 009°24'2 3.0
2018-May-17 21:57N 38°13' W 009°23'2 5.3
2018-May-17 21:30N 38°14' W 009°20'4 8.1
2018-May-17 21:00N 38°17' W 009°17'4 8.0
2018-May-17 20:30N 38°20' W 009°14'7 8.2
2018-May-17 19:40N 38°25' W 009°08'1 8.4
2018-May-17 19:30N 38°26' W 009°06'0 0.6
2018-May-17 19:00N 38°26' W 009°07'0 0.0
2018-May-17 18:31N 38°26' W 009°07'0 0.0
2018-May-17 18:00N 38°26' W 009°07'0 0.0
2018-May-17 17:30N 38°26' W 009°07'0 0.0
2018-May-17 17:01N 38°26' W 009°07'0 0.0
2018-May-17 16:30N 38°26' W 009°07'0 0.0
2018-May-17 16:00N 38°26' W 009°07'0 0.0
2018-May-17 15:30N 38°26' W 009°07'0 0.0
2018-May-17 15:01N 38°26' W 009°07'0 0.0
2018-May-17 13:03N 38°26' W 009°07'0 0.2
2018-May-17 13:00N 38°26' W 009°07'0 0.0
2018-May-17 11:52N 38°26' W 009°07'0 0.0
2018-May-17 11:30N 38°26' W 009°07'0 0.2
2018-May-17 11:00N 38°26' W 009°07'0 0.0
2018-May-17 10:29N 38°26' W 009°07'44 1.1
2018-May-15 20:04N 37°46' W 009°29'0 2.1
2018-May-15 20:00N 37°46' W 009°29'1 1.9
2018-May-15 19:30N 37°45' W 009°29'1 2.0
2018-May-15 19:00N 37°44' W 009°29'1 2.0
2018-May-15 18:31N 37°43' W 009°29'1 2.0
2018-May-15 18:01N 37°42' W 009°29'1 1.2
2018-May-15 17:30N 37°41' W 009°28'2 4.9
2018-May-15 17:00N 37°44' W 009°28'46 2.2
2018-May-14 20:37N 38°26' W 009°07'0 0.0
2018-May-14 16:08N 38°26' W 009°07'0 0.0
2018-May-14 16:00N 38°26' W 009°07'  
Track history (hours):
 
Tides and Currents Weather Stations Pressure Air Temp Water Temp Dewpoint Dewpoint Depression Visibility Wind Speed Wind Dir Waves Ship Positions

Branca De Sagres

Last reported at 2018-May-24 15:42 UTC. Time now 2018-May-25 06:36 UTC.
Position N 38°26' W 009°07'.

Length 18 m.

MMSI: 204209000.

Date/timePositionNaut miles runAvg speedWind from/ knotsBaromVisibWave heightAir tempDewpointWater temp
2018-May-24 15:42N 38°26' W 009°07'0 0.0
2018-May-24 15:30N 38°26' W 009°07'0 0.0
2018-May-24 14:58N 38°26' W 009°07'0 0.0
2018-May-24 14:30N 38°26' W 009°07'0 0.0
2018-May-24 13:59N 38°26' W 009°07'0 0.0
2018-May-24 08:08N 38°26' W 009°07'0 0.0
2018-May-24 07:12N 38°26' W 009°07'0 0.0
2018-May-24 06:57N 38°26' W 009°07'0 0.0
2018-May-24 06:30N 38°26' W 009°07'0 0.0
2018-May-24 03:19N 38°26' W 009°07'0 0.0
2018-May-24 02:59N 38°26' W 009°07'0 0.2
2018-May-24 02:30N 38°26' W 009°07'0 0.0
2018-May-24 02:00N 38°26' W 009°07'3 5.0
2018-May-24 01:30N 38°24' W 009°09'4 7.5
2018-May-24 01:00N 38°21' W 009°12'4 7.7
2018-May-24 00:30N 38°18' W 009°15'4 8.0
2018-May-24 00:00N 38°15' W 009°18'4 7.7
2018-May-23 23:30N 38°13' W 009°21'5 7.6
2018-May-23 22:49N 38°09' W 009°26'2 7.3
2018-May-23 22:30N 38°07' W 009°28'1 1.8
2018-May-23 21:59N 38°07' W 009°29'0 0.5
2018-May-23 21:12N 38°07' W 009°29'0 0.9
2018-May-23 20:55N 38°07' W 009°28'0 1.0
2018-May-23 20:29N 38°07' W 009°28'0 1.0
2018-May-23 19:59N 38°08' W 009°28'1 1.0
2018-May-23 19:27N 38°08' W 009°27'1 1.1
2018-May-23 18:56N 38°09' W 009°27'2 1.1
2018-May-23 17:11N 38°10' W 009°26'0 1.0
2018-May-23 16:59N 38°10' W 009°26'1 0.9
2018-May-23 16:18N 38°11' W 009°25'1 1.0
2018-May-23 15:46N 38°11' W 009°25'0 1.0
2018-May-23 15:22N 38°12' W 009°24'1 0.9
2018-May-23 14:36N 38°12' W 009°24'0 0.9
2018-May-23 14:29N 38°12' W 009°24'0 0.7
2018-May-23 14:00N 38°12' W 009°23'0 0.4
2018-May-23 13:27N 38°12' W 009°23'3 4.7
2018-May-23 12:46N 38°15' W 009°21'3 8.1
2018-May-23 12:26N 38°17' W 009°18'5 7.8
2018-May-23 11:48N 38°21' W 009°14'4 8.4
2018-May-23 11:20N 38°23' W 009°10'3 8.4
2018-May-23 10:59N 38°25' W 009°08'1 2.3
2018-May-23 10:29N 38°26' W 009°07'0 0.3
2018-May-23 09:59N 38°26' W 009°07'0 0.0
2018-May-22 20:13N 38°26' W 009°07'0 0.6
2018-May-22 20:00N 38°26' W 009°07'0 0.0
2018-May-22 11:43N 38°26' W 009°07'0 0.0
2018-May-22 11:31N 38°26' W 009°07'0 0.0
2018-May-22 10:59N 38°26' W 009°07'0 0.0
2018-May-22 10:30N 38°26' W 009°07'0 0.0
2018-May-22 10:00N 38°26' W 009°07'0 0.0
2018-May-22 09:30N 38°26' W 009°07'0 0.0
2018-May-22 09:00N 38°26' W 009°07'0 0.0
2018-May-22 08:30N 38°26' W 009°07'0 0.0
2018-May-22 08:00N 38°26' W 009°07'0 0.0
2018-May-22 07:30N 38°26' W 009°07'0 0.0
2018-May-22 07:00N 38°26' W 009°07'0 0.0
2018-May-22 06:30N 38°26' W 009°07'0 0.2
2018-May-22 06:00N 38°26' W 009°07'4 6.9
2018-May-22 05:23N 38°24' W 009°11'3 8.4
2018-May-22 04:58N 38°21' W 009°14'4 8.4
2018-May-22 04:30N 38°18' W 009°18'4 8.4
2018-May-22 03:59N 38°15' W 009°21'12 4.5
2018-May-22 01:22N 38°06' W 009°30'2 2.4
2018-May-22 00:41N 38°07' W 009°29'1 0.6
2018-May-21 23:34N 38°08' W 009°28'0 0.9
2018-May-21 23:28N 38°08' W 009°28'1 0.9
2018-May-21 22:13N 38°08' W 009°27'0 1.0
2018-May-21 21:51N 38°09' W 009°27'2 1.0
2018-May-21 19:39N 38°10' W 009°25'0 0.9
2018-May-21 19:30N 38°10' W 009°25'0 0.8
2018-May-21 19:00N 38°11' W 009°24'0 0.6
2018-May-21 18:30N 38°11' W 009°24'0 0.6
2018-May-21 18:00N 38°11' W 009°24'0 0.8
2018-May-21 17:30N 38°11' W 009°23'5 1.9
2018-May-21 15:10N 38°15' W 009°20'1 8.6
2018-May-21 15:00N 38°16' W 009°18'4 8.5
2018-May-21 14:30N 38°19' W 009°15'4 8.6
2018-May-21 14:00N 38°22' W 009°11'4 8.7
2018-May-21 13:30N 38°25' W 009°07'1 0.4
2018-May-21 10:53N 38°26' W 009°07'0 0.0
2018-May-21 10:30N 38°26' W 009°07'0 0.0
2018-May-21 09:59N 38°26' W 009°07'0 0.0
2018-May-19 14:07N 38°26' W 009°07'0 0.0
2018-May-19 14:00N 38°26' W 009°07'0 0.0
2018-May-19 13:30N 38°26' W 009°07'0 0.2
2018-May-19 13:00N 38°26' W 009°07'3 6.0
2018-May-19 12:30N 38°24' W 009°09'4 8.4
2018-May-19 12:00N 38°21' W 009°13'4 9.0
2018-May-19 11:30N 38°18' W 009°17'4 8.8
2018-May-19 11:00N 38°15' W 009°21'4 7.0
2018-May-19 10:30N 38°12' W 009°24'2 3.4
2018-May-19 10:00N 38°11' W 009°25'1 2.4
2018-May-19 09:26N 38°10' W 009°26'2 4.5
2018-May-19 08:59N 38°08' W 009°28'3 4.7
2018-May-19 08:25N 38°06' W 009°30'5 1.1
2018-May-19 03:36N 38°11' W 009°26'0 0.9
2018-May-19 03:30N 38°11' W 009°26'1 1.0
2018-May-19 02:59N 38°11' W 009°25'0 0.8
2018-May-19 02:30N 38°11' W 009°25'1 0.8
2018-May-19 00:59N 38°11' W 009°23'1 0.8
2018-May-18 23:52N 38°12' W 009°23'1 0.6
2018-May-18 22:28N 38°13' W 009°22'4 8.4
2018-May-18 21:59N 38°16' W 009°19'5 8.3
2018-May-18 21:26N 38°19' W 009°15'4 8.5
2018-May-18 20:57N 38°22' W 009°12'4 8.8
2018-May-18 20:30N 38°25' W 009°08'2 2.3
2018-May-18 19:47N 38°26' W 009°07'0 0.0
2018-May-18 19:28N 38°26' W 009°07'0 0.0
2018-May-18 11:41N 38°26' W 009°07'0 0.0
2018-May-18 11:30N 38°26' W 009°07'0 0.0
2018-May-18 10:26N 38°26' W 009°07'0 0.0
2018-May-18 04:23N 38°26' W 009°07'0 0.2
2018-May-18 03:59N 38°26' W 009°07'4 7.3
2018-May-18 03:30N 38°24' W 009°10'4 8.4
2018-May-18 03:00N 38°21' W 009°14'4 8.2
2018-May-18 02:30N 38°18' W 009°17'4 8.0
2018-May-18 02:00N 38°15' W 009°21'4 7.9
2018-May-18 01:28N 38°12' W 009°24'4 7.9
2018-May-18 00:55N 38°08' W 009°28'3 7.4
2018-May-18 00:30N 38°06' W 009°31'5 4.3
2018-May-17 23:21N 38°10' W 009°27'2 4.6
2018-May-17 23:01N 38°12' W 009°27'2 3.4
2018-May-17 22:29N 38°12' W 009°24'2 3.0
2018-May-17 21:57N 38°13' W 009°23'2 5.3
2018-May-17 21:30N 38°14' W 009°20'4 8.1
2018-May-17 21:00N 38°17' W 009°17'4 8.0
2018-May-17 20:30N 38°20' W 009°14'7 8.2
2018-May-17 19:40N 38°25' W 009°08'1 8.4
2018-May-17 19:30N 38°26' W 009°06'0 0.6
2018-May-17 19:00N 38°26' W 009°07'0 0.0
2018-May-17 18:31N 38°26' W 009°07'0 0.0
2018-May-17 18:00N 38°26' W 009°07'0 0.0
2018-May-17 17:30N 38°26' W 009°07'0 0.0
2018-May-17 17:01N 38°26' W 009°07'0 0.0
2018-May-17 16:30N 38°26' W 009°07'0 0.0
2018-May-17 16:00N 38°26' W 009°07'0 0.0
2018-May-17 15:30N 38°26' W 009°07'0 0.0
2018-May-17 15:01N 38°26' W 009°07'0 0.0
2018-May-17 13:03N 38°26' W 009°07'0 0.2
2018-May-17 13:00N 38°26' W 009°07'0 0.0
2018-May-17 11:52N 38°26' W 009°07'0 0.0
2018-May-17 11:30N 38°26' W 009°07'0 0.2
2018-May-17 11:00N 38°26' W 009°07'0 0.0
2018-May-17 10:29N 38°26' W 009°07'44 1.1
2018-May-15 20:04N 37°46' W 009°29'0 2.1
2018-May-15 20:00N 37°46' W 009°29'1 1.9
2018-May-15 19:30N 37°45' W 009°29'1 2.0
2018-May-15 19:00N 37°44' W 009°29'1 2.0
2018-May-15 18:31N 37°43' W 009°29'1 2.0
2018-May-15 18:01N 37°42' W 009°29'1 1.2
2018-May-15 17:30N 37°41' W 009°28'2 4.9
2018-May-15 17:00N 37°44' W 009°28'46 2.2
2018-May-14 20:37N 38°26' W 009°07'0 0.0
2018-May-14 16:08N 38°26' W 009°07'0 0.0
2018-May-14 16:00N 38°26' W 009°07'  

Dump ship's entire track history